Time;durP1;ratioP1;P1;durP2;ratioP2;P2;SDS_P1;SDS_P2;PMS_P1;PMS_P2;Temp;Humidity;BMP_temperature;BMP_pressure;BME280_temperature;BME280_humidity;BME280_pressure;Samples;Min_cycle;Max_cycle;Signal;HPM_P1;HPM_P2
2022/09/04 00:04:44;;;;;;;3.30;1.67;;;13.60;99.90;;;;;;10457495;28;20206;-89
2022/09/04 00:10:10;;;;;;;3.87;1.70;;;13.50;99.90;;;;;;10456108;28;20261;-89
2022/09/04 00:15:24;;;;;;;2.90;1.77;;;13.30;99.90;;;;;;10465409;28;20294;-89
2022/09/04 00:20:45;;;;;;;4.53;2.00;;;13.30;99.90;;;;;;10471841;28;20309;-90
2022/09/04 00:26:20;;;;;;;3.37;1.57;;;13.20;99.90;;;;;;10423607;28;20214;-90
2022/09/04 00:31:37;;;;;;;4.00;1.90;;;13.30;99.90;;;;;;10454730;28;20271;-91
2022/09/04 00:36:44;;;;;;;6.93;1.70;;;13.10;99.90;;;;;;10455044;28;20253;-90
2022/09/04 00:42:03;;;;;;;2.93;1.80;;;13.20;99.90;;;;;;10459621;28;20210;-90
2022/09/04 00:47:33;;;;;;;2.47;1.77;;;13.00;99.90;;;;;;10469126;28;20214;-90
2022/09/04 00:52:57;;;;;;;6.07;2.03;;;13.10;99.90;;;;;;10468758;28;20198;-90
2022/09/04 00:58:15;;;;;;;4.83;2.20;;;12.80;99.90;;;;;;10481045;28;20246;-90
2022/09/04 01:03:38;;;;;;;3.80;1.77;;;12.60;99.90;;;;;;10485704;28;20285;-90
2022/09/04 01:09:30;;;;;;;4.80;2.07;;;12.50;99.90;;;;;;10458393;28;20273;-90
2022/09/04 01:14:40;;;;;;;5.53;2.33;;;12.30;99.90;;;;;;10466913;28;20226;-90
2022/09/04 01:20:02;;;;;;;5.60;2.47;;;12.10;99.90;;;;;;10447925;28;20242;-90
2022/09/04 01:25:26;;;;;;;4.43;2.57;;;11.80;99.90;;;;;;10486325;28;20266;-90
2022/09/04 01:30:39;;;;;;;6.87;2.77;;;11.80;99.90;;;;;;10501827;28;20319;-90
2022/09/04 01:36:04;;;;;;;6.80;3.00;;;11.60;99.90;;;;;;10483726;28;20283;-89
2022/09/04 01:41:23;;;;;;;4.07;2.37;;;11.40;99.90;;;;;;10455842;28;20263;-90
2022/09/04 01:46:46;;;;;;;4.23;2.80;;;;;;;;;;10465758;28;20308;-90
2022/09/04 01:52:06;;;;;;;4.47;2.60;;;11.00;99.90;;;;;;10484075;28;20265;-90
2022/09/04 01:57:36;;;;;;;5.60;3.00;;;10.80;99.90;;;;;;10470563;28;20299;-90
2022/09/04 02:02:59;;;;;;;3.63;2.90;;;10.70;99.90;;;;;;10476757;28;20772;-90
2022/09/04 02:08:13;;;;;;;6.10;3.43;;;10.60;99.90;;;;;;10477552;28;20302;-89
2022/09/04 02:13:23;;;;;;;5.13;3.00;;;10.50;99.90;;;;;;10496170;28;20619;-90
2022/09/04 02:18:47;;;;;;;3.83;3.03;;;10.20;99.90;;;;;;10478071;28;20326;-90
2022/09/04 02:24:03;;;;;;;5.10;3.20;;;10.20;99.90;;;;;;10460382;28;20205;-89
2022/09/04 02:29:19;;;;;;;5.60;3.10;;;10.20;99.90;;;;;;10493302;28;20289;-89
2022/09/04 02:34:39;;;;;;;4.30;3.30;;;10.10;99.90;;;;;;10476721;28;20286;-90
2022/09/04 02:39:57;;;;;;;4.27;3.20;;;10.00;99.90;;;;;;10474604;28;20306;-89
2022/09/04 02:45:06;;;;;;;6.33;3.83;;;9.90;99.90;;;;;;10488115;28;20370;-90
2022/09/04 02:50:38;;;;;;;4.90;3.40;;;9.90;99.90;;;;;;10440991;28;20652;-90
2022/09/04 02:56:18;;;;;;;4.17;3.43;;;9.80;99.90;;;;;;10459584;28;20913;-90
2022/09/04 03:01:28;;;;;;;5.67;3.10;;;9.70;99.90;;;;;;10444711;28;20216;-90
2022/09/04 03:06:31;;;;;;;6.53;3.77;;;9.60;99.90;;;;;;10493344;28;20261;-89
2022/09/04 03:11:42;;;;;;;5.30;3.13;;;9.50;99.90;;;;;;10455650;28;20727;-90
2022/09/04 03:16:55;;;;;;;5.70;3.43;;;9.40;99.90;;;;;;10459356;28;20206;-90
2022/09/04 03:22:13;;;;;;;6.70;3.50;;;9.40;99.90;;;;;;10469977;28;20243;-89
2022/09/04 03:27:17;;;;;;;8.00;3.67;;;9.20;99.90;;;;;;10492654;28;20303;-91
2022/09/04 03:32:44;;;;;;;4.90;4.00;;;9.30;99.90;;;;;;10455740;28;20290;-90
2022/09/04 03:38:24;;;;;;;8.27;4.57;;;9.20;99.90;;;;;;10491584;28;20257;-89
2022/09/04 03:43:41;;;;;;;5.07;3.47;;;9.20;99.90;;;;;;10304984;28;20253;-90
2022/09/04 03:49:02;;;;;;;3.83;3.47;;;;;;;;;;10306611;28;20691;-89
2022/09/04 03:54:41;;;;;;;4.77;4.10;;;9.00;99.90;;;;;;10305161;28;20279;-89
2022/09/04 04:00:10;;;;;;;4.73;4.17;;;9.00;99.90;;;;;;10289736;28;20689;-89
2022/09/04 04:05:24;;;;;;;5.43;4.80;;;9.00;99.90;;;;;;10321886;28;20272;-90
2022/09/04 04:10:44;;;;;;;5.70;5.10;;;8.80;99.90;;;;;;10305287;28;20260;-90
2022/09/04 04:15:53;;;;;;;5.67;5.10;;;8.70;99.90;;;;;;10330269;28;20241;-90
2022/09/04 04:21:10;;;;;;;8.40;4.97;;;8.70;99.90;;;;;;10449226;28;20243;-91
2022/09/04 04:26:24;;;;;;;6.57;5.20;;;8.60;99.90;;;;;;10456594;28;20279;-90
2022/09/04 04:32:09;;;;;;;5.97;5.13;;;8.80;99.90;;;;;;10465032;28;21046;-90
2022/09/04 04:37:26;;;;;;;7.70;4.97;;;8.90;99.90;;;;;;10488935;28;20300;-89
2022/09/04 04:43:08;;;;;;;6.83;5.20;;;9.00;99.90;;;;;;10454067;28;20606;-88
2022/09/04 04:48:33;;;;;;;10.13;5.70;;;9.10;99.90;;;;;;10453558;28;20249;-88
2022/09/04 04:53:48;;;;;;;6.93;5.67;;;9.20;99.90;;;;;;10500605;28;20228;-89
2022/09/04 04:59:22;;;;;;;6.53;4.93;;;9.30;99.90;;;;;;10489667;28;20694;-88
2022/09/04 05:04:40;;;;;;;7.13;5.90;;;9.40;99.90;;;;;;10473335;28;20271;-88
2022/09/04 05:10:18;;;;;;;7.90;6.17;;;9.60;99.90;;;;;;10501092;28;20705;-89
2022/09/04 05:15:39;;;;;;;9.73;5.40;;;9.80;99.90;;;;;;10490650;28;20679;-89
2022/09/04 05:21:31;;;;;;;9.37;5.80;;;10.00;99.90;;;;;;10485484;28;20298;-89
2022/09/04 05:26:35;;;;;;;6.73;5.30;;;10.30;99.90;;;;;;10499592;28;20244;-89
2022/09/04 05:31:53;;;;;;;7.40;5.70;;;10.40;99.90;;;;;;10474071;28;20645;-89
2022/09/04 05:37:07;;;;;;;11.17;6.10;;;10.60;99.90;;;;;;10510383;28;20264;-89
2022/09/04 05:42:35;;;;;;;10.10;6.23;;;10.80;99.90;;;;;;10481959;28;20236;-89
2022/09/04 05:47:53;;;;;;;8.07;4.70;;;11.10;99.90;;;;;;10487836;28;20278;-89
2022/09/04 05:53:14;;;;;;;8.03;4.43;;;11.20;99.90;;;;;;10507113;28;20246;-89
2022/09/04 05:58:42;;;;;;;11.93;4.53;;;11.50;99.90;;;;;;10485953;28;20235;-89
2022/09/04 06:04:09;;;;;;;10.70;5.03;;;11.80;99.90;;;;;;10507759;28;20286;-89
2022/09/04 06:09:27;;;;;;;5.90;5.10;;;11.90;99.90;;;;;;10487790;28;20242;-89
2022/09/04 06:14:53;;;;;;;8.17;5.67;;;12.10;99.90;;;;;;10458457;28;20245;-89
2022/09/04 06:20:27;;;;;;;12.10;7.20;;;12.10;99.90;;;;;;10492553;28;20260;-89
2022/09/04 06:26:25;;;;;;;10.07;5.33;;;12.60;99.90;;;;;;10471901;28;20686;-89
2022/09/04 06:31:52;;;;;;;5.87;4.43;;;12.80;99.90;;;;;;10477207;28;20334;-89
2022/09/04 06:37:22;;;;;;;7.40;4.67;;;13.10;99.90;;;;;;10516481;28;20222;-90
2022/09/04 06:42:41;;;;;;;7.77;4.70;;;13.40;99.90;;;;;;10479321;28;20210;-89
2022/09/04 06:47:55;;;;;;;6.67;4.70;;;13.40;99.90;;;;;;10473147;28;20233;-89
2022/09/04 06:53:14;;;;;;;6.40;4.77;;;13.70;99.90;;;;;;10479043;28;20776;-88
2022/09/04 06:58:24;;;;;;;4.80;3.93;;;14.30;99.90;;;;;;10453448;28;20268;-88
2022/09/04 07:04:02;;;;;;;5.17;4.20;;;14.40;99.90;;;;;;10470980;28;20236;-89
2022/09/04 07:09:34;;;;;;;5.87;3.80;;;14.70;99.90;;;;;;10283156;28;20272;-91
2022/09/04 07:15:16;;;;;;;3.43;2.70;;;15.40;99.90;;;;;;10318676;28;20221;-89
2022/09/04 07:20:29;;;;;;;3.17;2.70;;;16.10;99.90;;;;;;10303557;28;20239;-89
2022/09/04 07:26:03;;;;;;;5.30;3.27;;;18.80;99.90;;;;;;10284704;28;20271;-88
2022/09/04 07:31:29;;;;;;;4.90;2.67;;;18.40;99.90;;;;;;10299043;28;20320;-88
2022/09/04 07:36:53;;;;;;;5.95;2.65;;;21.10;99.90;;;;;;10325285;28;20264;-88
2022/09/04 07:42:10;;;;;;;4.20;3.58;;;20.40;99.90;;;;;;10389967;28;20213;-88
2022/09/04 07:47:29;;;;;;;3.88;3.10;;;20.70;99.90;;;;;;10481119;28;20206;-89
2022/09/04 07:53:02;;;;;;;4.22;2.85;;;21.60;99.90;;;;;;10513816;28;20594;-88
2022/09/04 07:58:36;;;;;;;6.57;3.38;;;20.70;99.90;;;;;;10447123;28;20256;-88
2022/09/04 08:03:57;;;;;;;5.30;2.72;;;19.00;99.90;;;;;;10492091;28;20207;-88
2022/09/04 08:09:18;;;;;;;3.55;3.10;;;19.30;99.90;;;;;;10480121;28;20577;-88
2022/09/04 08:14:27;;;;;;;3.42;2.22;;;19.70;99.90;;;;;;10458964;28;20260;-88
2022/09/04 08:19:55;;;;;;;5.25;2.38;;;20.40;99.90;;;;;;10452650;28;20206;-88
2022/09/04 08:25:15;;;;;;;3.05;1.95;;;21.40;99.90;;;;;;10482938;28;20251;-88
2022/09/04 08:30:20;;;;;;;3.83;2.30;;;21.90;99.90;;;;;;10461170;28;20259;-88
2022/09/04 08:35:53;;;;;;;5.28;2.63;;;23.00;99.90;;;;;;10457515;28;20370;-90
2022/09/04 08:41:30;;;;;;;3.90;2.28;;;23.20;99.90;;;;;;10448704;28;20206;-88
2022/09/04 08:47:00;;;;;;;6.10;2.53;;;22.80;99.90;;;;;;10463310;28;20288;-89
2022/09/04 08:52:24;;;;;;;3.17;2.22;;;23.20;99.90;;;;;;10461115;28;20259;-89
2022/09/04 08:58:00;;;;;;;3.58;2.25;;;23.30;99.90;;;;;;10475596;28;20627;-90
2022/09/04 09:03:34;;;;;;;7.07;2.42;;;23.20;99.90;;;;;;10464434;28;20299;-92
2022/09/04 09:09:11;;;;;;;4.97;2.30;;;22.80;99.90;;;;;;10471824;28;20237;-91
2022/09/04 09:15:08;;;;;;;5.38;2.80;;;21.80;99.90;;;;;;10459488;28;20230;-91
2022/09/04 09:20:27;;;;;;;9.70;3.83;;;21.70;99.90;;;;;;10468529;28;20226;-91
2022/09/04 09:25:51;;;;;;;3.28;2.97;;;21.30;99.90;;;;;;10471910;28;21122;-92
2022/09/04 09:31:50;;;;;;;10.82;3.22;;;21.90;99.10;;;;;;10481053;28;20852;-91
2022/09/04 09:37:34;;;;;;;3.58;3.10;;;21.50;99.70;;;;;;10251979;28;20264;-91
2022/09/04 09:42:57;;;;;;;6.55;3.22;;;21.60;97.50;;;;;;10136739;29;20248;-91
2022/09/04 09:48:24;;;;;;;4.78;3.38;;;21.90;97.90;;;;;;10154504;28;20247;-91
2022/09/04 09:53:39;;;;;;;6.13;3.53;;;21.90;97.40;;;;;;10156778;29;20371;-91
2022/09/04 09:59:14;;;;;;;6.60;3.65;;;22.20;97.50;;;;;;10156135;29;20247;-91
2022/09/04 10:04:44;;;;;;;5.30;3.40;;;22.30;96.40;;;;;;10176015;28;20315;-90
2022/09/04 10:10:16;;;;;;;4.43;3.22;;;22.60;95.40;;;;;;10304787;28;20311;-92
2022/09/04 10:15:52;;;;;;;6.53;4.00;;;22.90;93.10;;;;;;10368288;28;20295;-89
2022/09/04 10:21:13;;;;;;;5.53;3.10;;;22.90;92.20;;;;;;10467153;28;20241;-90
2022/09/04 10:26:38;;;;;;;3.85;3.30;;;23.10;90.40;;;;;;10489236;28;20257;-90
2022/09/04 10:31:46;;;;;;;7.93;3.10;;;23.10;90.20;;;;;;10470132;28;20299;-89
2022/09/04 10:36:57;;;;;;;4.82;2.85;;;23.20;90.50;;;;;;10486667;28;20261;-90
2022/09/04 10:42:18;;;;;;;3.78;2.67;;;23.60;90.20;;;;;;10474633;28;20930;-90
2022/09/04 10:48:00;;;;;;;4.25;2.88;;;23.60;90.00;;;;;;10482215;28;20210;-89
2022/09/04 10:53:41;;;;;;;4.25;2.92;;;23.50;86.80;;;;;;10463662;28;20303;-89
2022/09/04 10:59:02;;;;;;;3.95;3.03;;;23.50;90.60;;;;;;10450212;28;20279;-90
2022/09/04 11:04:12;;;;;;;5.32;3.25;;;23.60;81.70;;;;;;10459928;28;20218;-89
2022/09/04 11:09:40;;;;;;;4.95;3.08;;;23.80;90.00;;;;;;10491351;28;20256;-89
2022/09/04 11:14:52;;;;;;;3.95;2.88;;;23.90;89.20;;;;;;10482373;28;20678;-89
2022/09/04 11:20:40;;;;;;;3.30;2.90;;;24.00;89.10;;;;;;10485862;28;20229;-90
2022/09/04 11:25:46;;;;;;;4.70;3.17;;;23.90;88.00;;;;;;10452201;28;20230;-90
2022/09/04 11:30:57;;;;;;;4.07;3.20;;;23.80;78.80;;;;;;10465050;28;20279;-89
2022/09/04 11:36:49;;;;;;;7.07;3.10;;;23.90;87.90;;;;;;10447155;28;20787;-90
2022/09/04 11:42:06;;;;;;;3.00;2.53;;;23.90;88.40;;;;;;10452685;28;20296;-89
2022/09/04 11:47:10;;;;;;;3.13;2.83;;;23.90;88.60;;;;;;10448866;28;20574;-90
2022/09/04 11:52:49;;;;;;;5.28;3.75;;;24.10;87.80;;;;;;10447247;28;20257;-89
2022/09/04 11:58:00;;;;;;;3.63;3.30;;;23.80;82.40;;;;;;10485265;28;20264;-90
2022/09/04 12:03:25;;;;;;;5.75;3.53;;;23.70;88.50;;;;;;10454966;28;20272;-91
2022/09/04 12:08:37;;;;;;;4.32;3.83;;;23.70;76.00;;;;;;10457266;28;20214;-91
2022/09/04 12:13:51;;;;;;;3.70;3.40;;;23.60;77.00;;;;;;10477952;28;20304;-91
2022/09/04 12:19:09;;;;;;;3.25;2.92;;;23.60;85.60;;;;;;10468856;28;20226;-90
2022/09/04 12:24:36;;;;;;;3.30;3.00;;;23.60;83.90;;;;;;10472832;28;20222;-91
2022/09/04 12:29:53;;;;;;;4.15;2.97;;;23.80;82.60;;;;;;10488846;28;20230;-90
2022/09/04 12:35:32;;;;;;;5.07;3.10;;;23.70;85.80;;;;;;10466598;28;20287;-89
2022/09/04 12:41:04;;;;;;;3.85;3.38;;;23.50;89.20;;;;;;10452235;28;20283;-89
2022/09/04 12:46:39;;;;;;;3.60;3.03;;;23.50;88.30;;;;;;10446406;28;20619;-89
2022/09/04 12:52:05;;;;;;;5.78;3.08;;;23.50;80.40;;;;;;10459646;28;20730;-88
2022/09/04 12:57:19;;;;;;;3.95;3.10;;;23.40;80.10;;;;;;10265618;28;20237;-89
2022/09/04 13:02:43;;;;;;;7.43;3.75;;;23.20;72.80;;;;;;10273003;28;20280;-91
2022/09/04 13:07:58;;;;;;;7.43;3.58;;;22.90;77.20;;;;;;10241866;29;20238;-89
2022/09/04 13:13:36;;;;;;;4.88;4.03;;;22.90;77.70;;;;;;10257588;28;20315;-90
2022/09/04 13:19:07;;;;;;;4.30;3.00;;;23.10;77.60;;;;;;10275225;28;20230;-89
2022/09/04 13:24:49;;;;;;;6.95;3.58;;;23.10;77.60;;;;;;10258595;28;20281;-89
2022/09/04 13:29:57;;;;;;;9.23;4.63;;;23.10;73.80;;;;;;10280837;28;20304;-90
2022/09/04 13:35:17;;;;;;;16.80;5.20;;;23.00;82.30;;;;;;10453539;28;20259;-89
2022/09/04 13:40:30;;;;;;;4.82;3.47;;;23.20;79.60;;;;;;10456138;28;20267;-89
2022/09/04 13:45:41;;;;;;;11.60;4.88;;;23.20;74.40;;;;;;10490969;28;20228;-90
2022/09/04 13:50:56;;;;;;;6.82;4.07;;;23.40;85.10;;;;;;10480728;28;20233;-89
2022/09/04 13:56:05;;;;;;;8.80;4.10;;;23.10;75.10;;;;;;10125512;28;10000288;-90
2022/09/04 14:01:14;;;;;;;6.93;4.50;;;23.20;78.10;;;;;;10444197;28;20243;-90
2022/09/04 14:06:20;;;;;;;13.13;4.90;;;22.70;80.70;;;;;;10467773;28;20290;-91
2022/09/04 14:11:25;;;;;;;8.20;5.22;;;22.60;88.80;;;;;;10477506;28;20251;-91
2022/09/04 14:16:32;;;;;;;14.60;5.68;;;22.40;88.50;;;;;;10510535;28;20295;-90
2022/09/04 14:21:56;;;;;;;6.97;4.00;;;22.30;92.50;;;;;;10443097;28;20227;-90
2022/09/04 14:27:12;;;;;;;5.28;4.15;;;22.40;75.40;;;;;;10440263;28;20287;-91
2022/09/04 14:32:32;;;;;;;9.77;4.65;;;22.10;92.70;;;;;;10469058;28;20246;-90
2022/09/04 14:37:49;;;;;;;11.55;5.47;;;22.20;77.20;;;;;;10476717;28;20250;-91
2022/09/04 14:43:21;;;;;;;9.68;4.72;;;22.60;92.40;;;;;;10441542;28;20246;-91
2022/09/04 14:48:25;;;;;;;7.22;4.55;;;23.00;93.20;;;;;;10463710;28;20234;-91
2022/09/04 14:53:33;;;;;;;11.07;5.30;;;23.10;92.10;;;;;;10457601;28;20254;-91
2022/09/04 14:58:44;;;;;;;9.50;4.47;;;23.10;91.90;;;;;;10473365;28;20211;-91
2022/09/04 15:04:04;;;;;;;10.55;4.35;;;23.10;88.10;;;;;;10491262;28;20267;-92
2022/09/04 15:09:29;;;;;;;9.93;4.38;;;23.20;91.30;;;;;;10477462;28;20892;-93
2022/09/04 15:14:35;;;;;;;6.07;4.32;;;23.30;76.40;;;;;;10450763;28;20280;-90
2022/09/04 15:20:12;;;;;;;6.57;4.30;;;23.20;88.40;;;;;;10472720;28;20278;-92
2022/09/04 15:25:25;;;;;;;8.05;5.03;;;23.30;90.80;;;;;;10471890;28;20233;-91
2022/09/04 15:31:12;;;;;;;11.30;3.90;;;23.20;90.70;;;;;;10451796;28;20246;-92
2022/09/04 15:36:23;;;;;;;8.73;3.63;;;23.20;90.50;;;;;;10433671;28;20280;-91
2022/09/04 15:41:32;;;;;;;5.90;4.95;;;23.20;87.00;;;;;;10456729;28;20229;-91
2022/09/04 15:46:56;;;;;;;9.25;4.28;;;23.10;90.80;;;;;;10466537;28;20233;-92
2022/09/04 15:52:18;;;;;;;5.85;3.50;;;23.00;90.30;;;;;;10419760;28;20302;-90
2022/09/04 15:57:38;;;;;;;6.55;4.60;;;23.10;90.80;;;;;;10474091;28;20206;-90
2022/09/04 16:03:07;;;;;;;6.75;3.97;;;23.00;91.20;;;;;;10491836;28;20819;-90
2022/09/04 16:08:22;;;;;;;8.70;5.03;;;23.00;91.50;;;;;;10469935;28;20221;-92
2022/09/04 16:13:25;;;;;;;7.28;4.70;;;22.80;92.00;;;;;;10491116;28;20835;-90
2022/09/04 16:18:37;;;;;;;6.25;3.92;;;22.70;92.70;;;;;;10441432;28;20754;-90
2022/09/04 16:23:39;;;;;;;8.90;4.90;;;22.90;92.90;;;;;;10450228;28;20958;-90
2022/09/04 16:28:52;;;;;;;10.60;5.88;;;22.90;92.80;;;;;;10481356;28;20295;-89
2022/09/04 16:33:58;;;;;;;9.93;5.18;;;22.80;93.20;;;;;;10488686;28;20246;-90
2022/09/04 16:39:19;;;;;;;7.88;4.68;;;22.70;93.20;;;;;;10452679;28;20230;-91
2022/09/04 16:44:31;;;;;;;6.85;4.47;;;22.80;92.80;;;;;;10490511;28;20234;-90
2022/09/04 16:49:56;;;;;;;6.57;4.90;;;22.50;92.70;;;;;;10489116;28;20307;-90
2022/09/04 16:55:23;;;;;;;7.88;4.43;;;22.50;93.30;;;;;;10442678;28;20277;-90
2022/09/04 17:00:28;;;;;;;4.45;3.60;;;21.60;81.00;;;;;;10415548;28;20207;-92
2022/09/04 17:05:48;;;;;;;8.85;4.30;;;20.30;90.90;;;;;;10433650;28;20250;-91
2022/09/04 17:22:33;;;;;;;11.05;4.80;;;18.90;94.90;;;;;;11515306;23;20361;-92
2022/09/04 17:28:11;;;;;;;5.35;4.50;;;19.00;97.00;;;;;;9899446;23;10000166;-82
2022/09/04 17:34:01;;;;;;;13.07;5.38;;;18.70;96.60;;;;;;10215937;29;20273;-83
2022/09/04 17:39:35;;;;;;;9.23;4.57;;;18.90;97.40;;;;;;10213797;29;20353;-86
2022/09/04 17:45:15;;;;;;;13.13;4.97;;;17.40;99.90;;;;;;10252236;28;20289;-83
2022/09/04 17:50:23;;;;;;;5.68;4.88;;;17.10;99.90;;;;;;10234366;29;20234;-83
2022/09/04 17:55:29;;;;;;;5.53;4.38;;;20.20;99.90;;;;;;10233693;28;20257;-81
2022/09/04 18:01:13;;;;;;;7.82;4.60;;;21.20;99.30;;;;;;10235047;29;20302;-82
2022/09/04 18:06:21;;;;;;;4.38;3.97;;;21.60;97.80;;;;;;10234261;28;20234;-82
2022/09/04 18:12:09;;;;;;;6.35;5.00;;;21.80;96.90;;;;;;10251757;29;20261;-82
2022/09/04 18:17:21;;;;;;;8.82;4.25;;;21.90;96.30;;;;;;10165049;29;20246;-82
2022/09/04 18:22:56;;;;;;;4.78;4.35;;;22.00;96.00;;;;;;10251428;28;20909;-82
2022/09/04 18:28:18;;;;;;;4.45;3.78;;;22.00;95.70;;;;;;10231049;29;20734;-82
2022/09/04 18:33:27;;;;;;;7.15;4.18;;;22.00;95.60;;;;;;10251322;29;20253;-82
2022/09/04 18:39:19;;;;;;;4.97;3.78;;;22.00;95.50;;;;;;10250061;28;20234;-82
2022/09/04 18:44:33;;;;;;;5.40;3.95;;;22.00;95.40;;;;;;10233387;29;20222;-81
2022/09/04 18:49:59;;;;;;;7.28;4.45;;;22.00;95.50;;;;;;10250762;28;20230;-81
2022/09/04 18:55:29;;;;;;;5.70;4.32;;;22.00;95.50;;;;;;10249802;28;20242;-81
2022/09/04 19:00:38;;;;;;;6.03;4.32;;;21.90;95.70;;;;;;10250194;29;20230;-83
2022/09/04 19:05:45;;;;;;;5.22;4.65;;;21.90;95.50;;;;;;10231911;29;20285;-83
2022/09/04 19:10:54;;;;;;;7.25;5.00;;;21.90;95.50;;;;;;10250051;28;20230;-82
2022/09/04 19:16:16;;;;;;;6.35;4.13;;;21.90;95.50;;;;;;10232248;29;20281;-82
2022/09/04 19:21:22;;;;;;;6.68;4.78;;;21.90;95.50;;;;;;10232625;29;20210;-82
2022/09/04 19:27:00;;;;;;;6.43;3.88;;;22.00;95.50;;;;;;10233402;29;20281;-82
2022/09/04 19:32:17;;;;;;;4.63;4.22;;;21.90;95.60;;;;;;10244413;28;20663;-82
2022/09/04 19:37:29;;;;;;;6.63;4.68;;;21.90;95.70;;;;;;10249089;28;20672;-82
2022/09/04 19:43:00;;;;;;;5.05;4.60;;;21.80;95.60;;;;;;10249727;29;20237;-82
2022/09/04 19:48:43;;;;;;;5.55;3.58;;;21.90;95.70;;;;;;10246477;28;20229;-81
2022/09/04 19:54:11;;;;;;;4.78;4.28;;;21.90;95.70;;;;;;10231652;28;20226;-82
2022/09/04 19:59:29;;;;;;;3.97;3.67;;;21.80;95.70;;;;;;10249144;28;20613;-82
2022/09/04 20:04:46;;;;;;;4.20;3.80;;;21.90;95.60;;;;;;10248120;29;20237;-84
2022/09/04 20:09:53;;;;;;;4.82;4.05;;;21.90;95.60;;;;;;10226846;28;20296;-82
2022/09/04 20:15:10;;;;;;;4.80;3.97;;;21.90;95.60;;;;;;10246109;28;20266;-83
2022/09/04 20:20:25;;;;;;;5.35;4.13;;;21.80;95.50;;;;;;10214696;29;20234;-87
2022/09/04 20:25:54;;;;;;;5.13;4.53;;;21.80;95.60;;;;;;10243309;28;20241;-83
2022/09/04 20:31:05;;;;;;;4.05;3.75;;;21.80;95.70;;;;;;10246388;29;20274;-83
2022/09/04 20:36:42;;;;;;;4.32;3.92;;;21.80;95.80;;;;;;10247045;28;20254;-83
2022/09/04 20:42:00;;;;;;;4.93;4.45;;;21.80;95.70;;;;;;10248854;29;20238;-83
2022/09/04 20:47:26;;;;;;;4.05;3.65;;;21.80;95.80;;;;;;10244377;28;20284;-84
2022/09/04 20:59:45;;;;;;;4.85;4.15;;;21.70;95.80;;;;;;10248426;28;20238;-82
2022/09/04 21:05:48;;;;;;;4.50;3.90;;;21.70;95.90;;;;;;10256535;28;20202;-83
2022/09/04 21:11:09;;;;;;;4.00;3.60;;;21.70;95.80;;;;;;10254098;28;20686;-83
2022/09/04 21:16:55;;;;;;;5.60;3.90;;;21.70;95.70;;;;;;10253135;28;20703;-82
2022/09/04 21:22:10;;;;;;;4.13;3.60;;;21.70;95.70;;;;;;10252689;28;20292;-82
2022/09/04 21:27:41;;;;;;;4.93;4.40;;;21.70;95.80;;;;;;10252820;28;20234;-82
2022/09/04 21:33:03;;;;;;;4.05;3.65;;;21.70;95.80;;;;;;10251464;28;20292;-83
2022/09/04 21:39:01;;;;;;;4.13;3.15;;;21.70;95.70;;;;;;10251584;28;20234;-83
2022/09/04 21:44:22;;;;;;;5.50;3.90;;;16.30;99.90;;;;;;10240852;29;20234;-83
2022/09/04 21:49:36;;;;;;;4.00;3.60;;;18.70;99.90;;;;;;10242532;29;20241;-83
2022/09/04 21:54:52;;;;;;;5.15;3.90;;;20.60;99.90;;;;;;10252854;28;20254;-83
2022/09/04 22:00:16;;;;;;;4.20;3.80;;;21.20;99.60;;;;;;10253819;28;20253;-83
2022/09/04 22:06:07;;;;;;;4.18;3.60;;;21.40;98.60;;;;;;10250195;28;20214;-83
2022/09/04 22:11:26;;;;;;;3.92;3.53;;;21.50;98.10;;;;;;10251615;28;20234;-83
2022/09/04 22:17:09;;;;;;;5.15;4.15;;;21.50;97.80;;;;;;10252183;28;20269;-83
2022/09/04 22:22:49;;;;;;;5.00;4.22;;;21.50;97.60;;;;;;10235374;28;20237;-82
2022/09/04 22:28:13;;;;;;;3.90;3.53;;;21.60;97.40;;;;;;10250888;28;20199;-82
2022/09/04 22:33:24;;;;;;;3.67;3.33;;;21.60;97.30;;;;;;10251778;29;20631;-82
2022/09/04 22:38:39;;;;;;;3.70;3.40;;;21.60;97.00;;;;;;10250640;28;20656;-82
2022/09/04 22:44:06;;;;;;;3.67;3.38;;;21.60;96.90;;;;;;10251539;29;20335;-82
2022/09/04 22:49:46;;;;;;;4.13;3.50;;;21.60;96.80;;;;;;10251303;28;20596;-82
2022/09/04 22:55:27;;;;;;;6.32;4.07;;;21.60;96.60;;;;;;10201200;29;20257;-83
2022/09/04 23:01:04;;;;;;;4.90;3.40;;;21.60;96.60;;;;;;10234020;28;20234;-82
2022/09/04 23:06:26;;;;;;;3.58;3.28;;;21.60;96.50;;;;;;10237022;28;20227;-82
2022/09/04 23:12:00;;;;;;;3.55;3.25;;;21.60;96.30;;;;;;10236030;29;20308;-82
2022/09/04 23:18:04;;;;;;;3.78;3.10;;;21.60;96.20;;;;;;10234024;29;20765;-82
2022/09/04 23:23:48;;;;;;;4.05;3.20;;;21.60;96.20;;;;;;10054509;29;20661;-83
2022/09/04 23:29:30;;;;;;;3.53;3.20;;;21.60;96.10;;;;;;10082349;29;20315;-83
2022/09/04 23:34:50;;;;;;;3.25;2.97;;;21.60;96.10;;;;;;10107730;29;20834;-83
2022/09/04 23:40:27;;;;;;;3.70;3.33;;;21.60;95.90;;;;;;10106005;29;20241;-82
2022/09/04 23:45:52;;;;;;;3.50;2.90;;;21.60;95.90;;;;;;10110221;29;20324;-82
2022/09/04 23:51:47;;;;;;;3.53;2.83;;;21.60;95.80;;;;;;10131821;29;20678;-82
2022/09/04 23:56:58;;;;;;;4.15;2.75;;;21.50;95.70;;;;;;10125565;29;20440;-82
